Time;durP1;ratioP1;P1;durP2;ratioP2;P2;SDS_P1;SDS_P2;PMS_P1;PMS_P2;Temp;Humidity;BMP_temperature;BMP_pressure;BME280_temperature;BME280_humidity;BME280_pressure;Samples;Min_cycle;Max_cycle;Signal;HPM_P1;HPM_P2
2022/06/16 00:02:03;;;;;;;6.57;3.22;;;17.20;99.90;;;;;;5111456;28;20055;-64
2022/06/16 00:04:30;;;;;;;7.40;3.88;;;17.20;99.90;;;;;;5111749;28;20510;-63
2022/06/16 00:06:59;;;;;;;4.70;3.38;;;17.20;99.90;;;;;;5108092;28;20082;-64
2022/06/16 00:09:26;;;;;;;5.63;3.20;;;17.20;99.90;;;;;;5099796;28;20036;-63
2022/06/16 00:11:54;;;;;;;;;;;17.10;99.90;;;;;;5110011;28;20043;-64
2022/06/16 00:14:27;;;;;;;4.40;3.22;;;17.00;99.90;;;;;;5111347;28;19934;-64
2022/06/16 00:16:55;;;;;;;3.78;3.30;;;17.00;99.90;;;;;;5108994;28;20043;-63
2022/06/16 00:19:22;;;;;;;5.57;3.25;;;17.00;99.90;;;;;;5099141;28;20552;-64
2022/06/16 00:21:48;;;;;;;;;;;17.00;99.90;;;;;;5110229;28;20048;-64
2022/06/16 00:24:15;;;;;;;5.00;3.50;;;17.00;99.90;;;;;;5111415;28;20300;-63
2022/06/16 00:26:42;;;;;;;9.50;3.90;;;17.00;99.90;;;;;;5103613;28;20044;-63
2022/06/16 00:29:09;;;;;;;12.30;4.90;;;17.00;99.90;;;;;;5085199;28;20039;-63
2022/06/16 00:31:36;;;;;;;9.88;5.00;;;17.10;99.90;;;;;;5111205;28;20439;-63
2022/06/16 00:34:03;;;;;;;10.25;4.68;;;17.00;99.90;;;;;;5092815;28;20056;-63
2022/06/16 00:36:30;;;;;;;8.13;3.97;;;17.00;99.90;;;;;;5108281;28;20387;-63
2022/06/16 00:38:57;;;;;;;4.40;3.30;;;17.00;99.90;;;;;;5084876;28;20052;-64
2022/06/16 00:41:24;;;;;;;7.85;3.80;;;16.90;99.90;;;;;;5092974;28;20495;-63
2022/06/16 00:43:50;;;;;;;4.85;3.50;;;16.90;99.90;;;;;;5110147;28;20043;-63
2022/06/16 00:46:19;;;;;;;6.63;3.70;;;16.70;99.90;;;;;;5103194;28;20434;-64
2022/06/16 00:48:51;;;;;;;9.07;3.70;;;16.80;99.90;;;;;;5093327;28;20047;-64
2022/06/16 00:51:29;;;;;;;7.38;3.60;;;16.80;99.90;;;;;;5092934;28;20055;-64
2022/06/16 00:54:02;;;;;;;6.93;4.22;;;16.80;99.90;;;;;;5100081;28;20040;-63
2022/06/16 00:56:29;;;;;;;6.03;4.40;;;16.70;99.90;;;;;;5073178;28;20051;-64
2022/06/16 00:59:01;;;;;;;5.40;4.88;;;16.60;99.90;;;;;;5073128;28;20044;-64
2022/06/16 01:01:30;;;;;;;8.88;4.90;;;16.50;99.90;;;;;;5083559;28;20043;-64
2022/06/16 01:06:44;;;;;;;7.30;4.68;;;16.30;99.90;;;;;;5111520;28;20035;-63
2022/06/16 01:09:18;;;;;;;9.45;4.82;;;16.30;99.90;;;;;;5110669;28;20047;-63
2022/06/16 01:15:07;;;;;;;6.18;4.22;;;16.20;99.90;;;;;;5111086;28;20040;-63
2022/06/16 01:17:53;;;;;;;6.93;4.40;;;16.20;99.90;;;;;;5093221;28;20036;-63
2022/06/16 01:20:28;;;;;;;12.88;4.88;;;16.20;99.90;;;;;;5085666;28;20040;-63
2022/06/16 01:23:14;;;;;;;6.85;4.28;;;16.20;99.90;;;;;;5093302;28;20047;-63
2022/06/16 01:29:36;;;;;;;8.20;4.65;;;16.10;99.90;;;;;;5096046;28;20135;-65
2022/06/16 01:32:25;;;;;;;6.30;4.43;;;16.10;99.90;;;;;;5113108;28;20408;-66
2022/06/16 01:35:11;;;;;;;9.73;4.53;;;16.20;99.90;;;;;;5087219;28;20567;-66
2022/06/16 01:38:13;;;;;;;6.10;4.43;;;16.10;99.90;;;;;;5075863;28;20048;-66
2022/06/16 01:40:50;;;;;;;8.80;4.35;;;16.10;99.90;;;;;;5069979;28;20400;-66
2022/06/16 01:43:35;;;;;;;5.18;4.03;;;16.10;99.90;;;;;;5066927;28;20477;-65
2022/06/16 01:46:22;;;;;;;5.35;4.13;;;16.10;99.90;;;;;;5053764;28;20045;-65
2022/06/16 01:49:07;;;;;;;5.97;4.30;;;16.00;99.90;;;;;;5069213;28;20080;-65
2022/06/16 01:51:56;;;;;;;5.78;4.75;;;15.90;99.90;;;;;;5060704;28;20044;-66
2022/06/16 01:54:33;;;;;;;12.52;4.82;;;15.70;99.90;;;;;;5090102;28;20122;-65
2022/06/16 01:57:11;;;;;;;7.10;4.33;;;15.60;99.90;;;;;;5094020;28;20050;-66
2022/06/16 02:00:20;;;;;;;9.50;5.63;;;15.40;99.90;;;;;;5054738;28;20473;-66
2022/06/16 02:02:58;;;;;;;8.55;5.10;;;15.40;99.90;;;;;;5031412;28;20137;-66
2022/06/16 02:05:32;;;;;;;8.35;5.30;;;15.40;99.90;;;;;;5014744;28;20052;-66
2022/06/16 02:08:16;;;;;;;9.05;5.65;;;15.40;99.90;;;;;;5067945;28;20068;-66
2022/06/16 02:10:51;;;;;;;11.40;6.10;;;15.40;99.90;;;;;;5088400;28;20037;-66
2022/06/16 02:13:25;;;;;;;7.82;5.93;;;15.50;99.90;;;;;;5072161;28;20048;-66
2022/06/16 02:15:52;;;;;;;9.57;6.00;;;15.50;99.90;;;;;;5074586;28;20455;-66
2022/06/16 02:18:30;;;;;;;11.93;6.75;;;15.60;99.90;;;;;;5093357;28;20048;-66
2022/06/16 02:21:19;;;;;;;8.73;6.55;;;15.60;99.90;;;;;;5074991;28;20078;-66
2022/06/16 02:23:47;;;;;;;7.82;6.25;;;15.70;99.90;;;;;;5093383;28;20101;-66
2022/06/16 02:26:15;;;;;;;11.23;6.68;;;15.80;99.90;;;;;;5090510;28;20046;-66
2022/06/16 02:28:56;;;;;;;13.10;6.80;;;15.80;99.90;;;;;;5054857;28;20493;-66
2022/06/16 02:31:37;;;;;;;12.25;6.15;;;15.80;99.90;;;;;;5072887;28;20036;-66
2022/06/16 02:34:23;;;;;;;11.52;6.32;;;15.80;99.90;;;;;;5060787;28;20040;-66
2022/06/16 02:36:58;;;;;;;6.25;4.78;;;15.80;99.90;;;;;;5070507;28;20477;-66
2022/06/16 02:39:52;;;;;;;7.50;4.80;;;15.70;99.90;;;;;;5071672;28;20055;-66
2022/06/16 02:42:47;;;;;;;7.85;5.13;;;15.50;99.90;;;;;;5071407;28;20047;-66
2022/06/16 02:45:18;;;;;;;10.07;5.35;;;15.10;99.90;;;;;;5091109;28;20048;-66
2022/06/16 02:48:04;;;;;;;7.55;4.95;;;15.00;99.90;;;;;;5091650;28;20052;-66
2022/06/16 02:50:50;;;;;;;4.78;4.28;;;14.90;99.90;;;;;;5074396;28;20462;-66
2022/06/16 02:56:20;;;;;;;7.07;4.57;;;14.80;99.90;;;;;;5071183;28;20040;-66
2022/06/16 02:58:48;;;;;;;5.68;4.60;;;14.80;99.90;;;;;;5071222;28;20075;-66
2022/06/16 03:01:17;;;;;;;8.73;4.45;;;14.90;99.90;;;;;;5089563;28;20130;-66
2022/06/16 03:04:00;;;;;;;11.85;4.95;;;14.90;99.90;;;;;;5074483;28;20075;-66
2022/06/16 03:06:27;;;;;;;4.70;3.78;;;14.90;99.90;;;;;;5091174;28;20052;-66
2022/06/16 03:08:55;;;;;;;5.95;4.57;;;14.90;99.90;;;;;;5073569;28;20539;-66
2022/06/16 03:11:29;;;;;;;5.50;3.97;;;14.90;99.90;;;;;;5070563;28;20051;-65
2022/06/16 03:13:57;;;;;;;9.35;4.35;;;14.90;99.90;;;;;;5072044;28;20128;-66
2022/06/16 03:16:30;;;;;;;6.75;4.82;;;14.90;99.90;;;;;;5070911;28;20062;-66
2022/06/16 03:18:57;;;;;;;6.88;4.22;;;14.90;99.90;;;;;;5089981;28;20055;-66
2022/06/16 03:21:26;;;;;;;6.95;4.68;;;14.90;99.90;;;;;;5087174;28;20052;-66
2022/06/16 03:23:53;;;;;;;6.82;4.90;;;14.90;99.90;;;;;;5087778;28;20047;-66
2022/06/16 03:26:20;;;;;;;6.43;4.72;;;14.90;99.90;;;;;;5079450;28;20040;-66
2022/06/16 03:28:51;;;;;;;6.07;4.28;;;15.00;99.90;;;;;;5087514;28;20053;-66
2022/06/16 03:31:18;;;;;;;9.48;4.22;;;15.00;99.90;;;;;;5071438;28;20078;-66
2022/06/16 03:33:47;;;;;;;9.43;4.40;;;15.00;99.90;;;;;;5070521;28;20535;-66
2022/06/16 03:36:14;;;;;;;8.65;4.70;;;14.90;99.90;;;;;;5083855;28;20522;-66
2022/06/16 03:38:44;;;;;;;7.85;4.63;;;14.90;99.90;;;;;;5087356;28;20136;-66
2022/06/16 03:41:14;;;;;;;9.45;4.78;;;14.90;99.90;;;;;;5087045;28;20051;-66
2022/06/16 03:43:42;;;;;;;6.75;4.43;;;14.80;99.90;;;;;;5072134;28;20056;-66
2022/06/16 03:46:15;;;;;;;7.55;4.22;;;14.70;99.90;;;;;;5091543;28;20065;-66
2022/06/16 03:48:50;;;;;;;5.40;4.10;;;14.70;99.90;;;;;;5090492;28;20046;-66
2022/06/16 03:51:27;;;;;;;8.90;4.72;;;14.70;99.90;;;;;;5090309;28;20060;-66
2022/06/16 03:53:54;;;;;;;9.68;4.45;;;14.80;99.90;;;;;;5072471;28;20044;-66
2022/06/16 03:56:21;;;;;;;7.30;4.60;;;14.90;99.90;;;;;;5086976;28;20044;-65
2022/06/16 03:58:54;;;;;;;6.57;4.82;;;15.00;99.90;;;;;;5087104;28;20131;-65
2022/06/16 04:01:22;;;;;;;5.55;4.65;;;15.20;99.90;;;;;;5072030;28;20036;-66
2022/06/16 04:04:01;;;;;;;7.40;5.60;;;15.30;99.90;;;;;;5086978;28;20045;-66
2022/06/16 04:06:51;;;;;;;7.18;5.32;;;15.30;99.90;;;;;;5070180;28;20056;-66
2022/06/16 04:09:23;;;;;;;11.23;5.63;;;15.40;99.90;;;;;;5090022;28;20044;-65
2022/06/16 04:11:51;;;;;;;9.10;4.93;;;15.50;99.90;;;;;;5064392;28;20058;-66
2022/06/16 04:14:18;;;;;;;7.43;5.10;;;15.50;99.90;;;;;;5073284;28;20044;-66
2022/06/16 04:17:01;;;;;;;7.78;4.90;;;15.60;99.90;;;;;;5090172;28;20043;-66
2022/06/16 04:22:45;;;;;;;8.13;4.63;;;15.90;99.90;;;;;;5075438;28;20044;-66
2022/06/16 04:25:19;;;;;;;8.43;5.38;;;16.00;99.90;;;;;;5089991;28;20048;-66
2022/06/16 04:27:46;;;;;;;7.32;5.07;;;16.10;99.90;;;;;;5087378;28;20048;-66
2022/06/16 04:30:14;;;;;;;;;;;16.10;99.90;;;;;;5086692;28;20045;-66
2022/06/16 04:32:43;;;;;;;8.90;5.95;;;16.00;99.90;;;;;;5069951;28;19978;-66
2022/06/16 04:35:11;;;;;;;8.30;5.68;;;16.10;99.90;;;;;;5086507;28;20514;-66
2022/06/16 04:37:53;;;;;;;7.88;5.32;;;16.20;99.90;;;;;;5088238;28;20044;-66
2022/06/16 04:40:21;;;;;;;7.68;5.15;;;16.30;99.90;;;;;;5086090;28;20041;-66
2022/06/16 04:42:50;;;;;;;7.93;5.03;;;16.30;99.90;;;;;;5071322;28;20040;-66
2022/06/16 04:45:18;;;;;;;14.95;6.28;;;16.40;99.90;;;;;;5070469;28;20069;-66
2022/06/16 04:47:46;;;;;;;11.48;5.95;;;16.40;99.90;;;;;;5073044;28;20070;-66
2022/06/16 04:50:18;;;;;;;10.70;5.75;;;16.40;99.90;;;;;;5072841;28;20563;-66
2022/06/16 04:52:49;;;;;;;9.38;5.88;;;16.40;99.90;;;;;;5072103;28;20072;-65
2022/06/16 04:55:19;;;;;;;8.65;5.50;;;16.50;99.90;;;;;;5078235;28;20036;-66
2022/06/16 04:58:09;;;;;;;11.40;5.70;;;16.50;99.90;;;;;;5034487;28;20102;-66
2022/06/16 05:00:47;;;;;;;6.47;4.95;;;16.70;99.90;;;;;;5077039;28;20047;-66
2022/06/16 05:03:52;;;;;;;17.00;6.13;;;16.80;99.90;;;;;;5094834;28;20093;-66
2022/06/16 05:06:44;;;;;;;9.85;6.10;;;16.90;99.90;;;;;;5076862;28;20397;-66
2022/06/16 05:09:16;;;;;;;14.07;6.05;;;16.90;99.90;;;;;;5075562;28;20055;-66
2022/06/16 05:11:53;;;;;;;9.88;6.28;;;17.00;99.90;;;;;;5076845;28;20405;-66
2022/06/16 05:14:46;;;;;;;11.10;7.13;;;17.00;99.90;;;;;;5070812;28;20135;-66
2022/06/16 05:17:30;;;;;;;11.77;7.00;;;17.20;99.90;;;;;;5092770;28;20043;-66
2022/06/16 05:20:16;;;;;;;10.15;5.55;;;17.30;99.90;;;;;;5088446;28;20051;-66
2022/06/16 05:23:05;;;;;;;9.57;5.78;;;17.40;99.90;;;;;;5073835;28;20059;-66
2022/06/16 05:25:50;;;;;;;8.82;6.20;;;17.60;99.90;;;;;;5057092;28;20455;-66
2022/06/16 05:28:36;;;;;;;12.25;6.15;;;17.60;99.90;;;;;;5079549;28;20052;-66
2022/06/16 05:31:14;;;;;;;11.23;5.93;;;17.60;99.90;;;;;;5092746;28;20048;-65
2022/06/16 05:33:55;;;;;;;9.82;6.63;;;17.50;99.90;;;;;;5093101;28;20066;-66
2022/06/16 05:36:57;;;;;;;8.48;6.10;;;17.40;99.90;;;;;;5077095;28;20063;-66
2022/06/16 05:39:33;;;;;;;7.70;6.30;;;17.30;99.90;;;;;;5079721;28;20040;-65
2022/06/16 05:42:32;;;;;;;10.97;6.27;;;17.40;99.90;;;;;;5076064;28;20044;-66
2022/06/16 05:45:33;;;;;;;10.60;6.07;;;17.40;99.90;;;;;;5031201;28;20525;-66
2022/06/16 05:48:11;;;;;;;;;;;17.50;99.90;;;;;;5065235;28;20143;-65
2022/06/16 05:50:41;;;;;;;10.05;6.15;;;17.60;99.90;;;;;;5072323;28;19920;-66
2022/06/16 05:53:07;;;;;;;9.48;6.70;;;17.50;99.90;;;;;;5088281;28;20055;-66
2022/06/16 05:55:39;;;;;;;9.15;6.32;;;17.50;99.90;;;;;;5089103;28;20040;-66
2022/06/16 05:58:06;;;;;;;;;;;17.50;99.90;;;;;;5072809;28;20515;-66
2022/06/16 06:00:44;;;;;;;12.05;6.72;;;17.60;99.90;;;;;;5074856;28;19920;-65
2022/06/16 06:03:13;;;;;;;7.22;6.40;;;17.60;99.90;;;;;;5089097;28;20107;-66
2022/06/16 06:05:41;;;;;;;8.75;6.40;;;17.60;99.90;;;;;;5089334;28;20057;-66
2022/06/16 06:16:37;;;;;;;10.73;6.43;;;18.00;99.90;;;;;;5089068;28;20420;-66
2022/06/16 06:19:25;;;;;;;11.35;6.90;;;18.20;99.90;;;;;;5073573;28;20481;-67
2022/06/16 06:21:58;;;;;;;7.47;5.50;;;18.50;99.90;;;;;;5073934;28;20099;-66
2022/06/16 06:24:26;;;;;;;12.60;5.72;;;18.90;99.90;;;;;;5093224;28;20070;-66
2022/06/16 06:26:54;;;;;;;12.23;6.18;;;19.20;99.90;;;;;;5092019;28;20044;-66
2022/06/16 06:29:20;;;;;;;11.43;5.50;;;19.30;99.90;;;;;;5087785;28;20098;-66
2022/06/16 06:31:47;;;;;;;8.80;6.05;;;19.50;99.90;;;;;;5071848;28;20048;-66
2022/06/16 06:34:14;;;;;;;8.55;6.15;;;19.70;99.90;;;;;;5074985;28;20040;-66
2022/06/16 06:36:41;;;;;;;10.30;5.72;;;19.80;99.90;;;;;;5092900;28;20042;-66
2022/06/16 06:39:08;;;;;;;10.63;6.05;;;20.00;99.90;;;;;;5087483;28;20040;-66
2022/06/16 06:41:35;;;;;;;;;;;20.10;99.90;;;;;;5089525;28;20089;-66
2022/06/16 06:44:01;;;;;;;10.63;6.28;;;20.20;99.90;;;;;;5093020;28;19920;-66
2022/06/16 06:46:28;;;;;;;8.35;6.00;;;20.20;99.90;;;;;;5070237;28;20068;-66
2022/06/16 06:49:02;;;;;;;9.07;6.07;;;20.30;99.90;;;;;;5084889;28;20048;-67
2022/06/16 06:51:31;;;;;;;10.95;6.13;;;20.30;99.90;;;;;;5092461;28;20093;-66
2022/06/16 06:53:58;;;;;;;7.93;5.80;;;20.20;99.90;;;;;;5092711;28;20047;-66
2022/06/16 06:56:25;;;;;;;;;;;20.30;99.90;;;;;;5091921;28;20040;-66
2022/06/16 06:58:53;;;;;;;11.40;6.50;;;20.40;99.90;;;;;;5092726;28;19928;-67
2022/06/16 07:01:20;;;;;;;12.30;5.97;;;20.50;99.90;;;;;;5092247;28;20040;-66
2022/06/16 07:03:49;;;;;;;8.10;5.90;;;20.60;99.90;;;;;;5092608;28;20079;-66
2022/06/16 07:06:18;;;;;;;11.38;6.32;;;20.80;99.90;;;;;;5091894;28;20135;-66
2022/06/16 07:08:45;;;;;;;12.77;6.50;;;21.00;99.90;;;;;;5092439;28;20097;-66
2022/06/16 07:11:13;;;;;;;8.10;6.85;;;21.20;99.90;;;;;;5091813;28;20423;-67
2022/06/16 07:13:40;;;;;;;11.30;6.40;;;21.50;99.90;;;;;;5092466;28;20074;-65
2022/06/16 07:16:07;;;;;;;;;;;21.80;99.90;;;;;;5091252;28;20089;-66
2022/06/16 07:18:34;;;;;;;10.27;6.80;;;21.70;99.90;;;;;;5092384;28;19970;-67
2022/06/16 07:21:01;;;;;;;9.30;6.18;;;21.60;99.90;;;;;;5091462;28;20549;-66
2022/06/16 07:23:28;;;;;;;9.50;6.20;;;21.70;99.90;;;;;;5091242;28;20071;-66
2022/06/16 07:25:54;;;;;;;10.13;7.32;;;21.60;99.90;;;;;;5110322;22;20518;-64
2022/06/16 07:28:22;;;;;;;8.85;6.85;;;21.50;99.90;;;;;;5107256;28;20027;-65
2022/06/16 07:30:48;;;;;;;12.60;7.07;;;21.40;99.90;;;;;;5093085;28;20437;-64
2022/06/16 07:33:15;;;;;;;13.00;6.32;;;21.40;99.90;;;;;;5090543;28;20071;-64
2022/06/16 07:35:43;;;;;;;16.83;7.43;;;21.40;99.90;;;;;;5084340;28;20436;-65
2022/06/16 07:38:11;;;;;;;14.13;6.05;;;21.50;99.90;;;;;;5071339;28;20040;-64
2022/06/16 07:40:39;;;;;;;16.70;6.80;;;21.60;99.90;;;;;;5071168;28;20493;-65
2022/06/16 07:43:06;;;;;;;15.55;7.38;;;21.40;99.90;;;;;;5080161;28;20037;-65
2022/06/16 07:45:34;;;;;;;12.63;6.45;;;21.40;99.90;;;;;;5069922;28;20047;-64
2022/06/16 07:48:03;;;;;;;13.02;6.80;;;21.40;99.90;;;;;;5088084;28;20049;-65
2022/06/16 07:50:31;;;;;;;11.15;6.70;;;21.60;99.90;;;;;;5078604;28;20079;-65
2022/06/16 07:52:59;;;;;;;9.52;6.93;;;21.90;99.90;;;;;;5087768;28;20566;-65
2022/06/16 07:55:25;;;;;;;;;;;21.90;99.90;;;;;;5086849;28;20394;-65
2022/06/16 07:57:52;;;;;;;9.75;6.45;;;22.10;99.90;;;;;;5080649;28;20410;-64
2022/06/16 08:00:23;;;;;;;13.15;7.13;;;22.10;99.90;;;;;;5070572;28;20044;-64
2022/06/16 08:02:51;;;;;;;12.07;7.63;;;22.00;99.90;;;;;;5071263;28;20090;-64
2022/06/16 08:05:22;;;;;;;10.93;7.13;;;21.70;99.90;;;;;;5078227;28;20547;-64
2022/06/16 08:07:49;;;;;;;11.57;7.25;;;21.60;99.90;;;;;;5065211;28;20049;-64
2022/06/16 08:10:21;;;;;;;9.48;6.82;;;21.50;99.90;;;;;;5091087;28;20451;-64
2022/06/16 08:12:48;;;;;;;11.50;7.68;;;21.70;99.90;;;;;;5091246;28;20040;-64
2022/06/16 08:15:15;;;;;;;8.57;6.93;;;21.60;99.90;;;;;;5082435;28;20037;-64
2022/06/16 08:17:45;;;;;;;8.32;6.82;;;21.50;99.90;;;;;;5085637;28;20531;-63
2022/06/16 08:20:13;;;;;;;7.85;6.82;;;21.60;99.90;;;;;;5090642;28;20044;-64
2022/06/16 08:22:40;;;;;;;10.13;7.05;;;22.00;99.90;;;;;;5088755;28;20505;-64
2022/06/16 08:25:08;;;;;;;12.60;6.85;;;22.10;99.90;;;;;;5062185;28;20511;-65
2022/06/16 08:27:37;;;;;;;9.10;6.63;;;22.20;99.90;;;;;;5062429;28;20045;-64
2022/06/16 08:30:09;;;;;;;10.23;6.22;;;22.20;99.90;;;;;;5079044;28;20561;-64
2022/06/16 08:32:36;;;;;;;10.75;7.32;;;22.30;99.90;;;;;;5088543;28;20040;-64
2022/06/16 08:35:04;;;;;;;11.15;6.75;;;22.20;99.90;;;;;;5093668;28;20040;-64
2022/06/16 08:37:35;;;;;;;11.20;6.47;;;22.30;99.90;;;;;;5094717;28;20412;-64
2022/06/16 08:40:04;;;;;;;8.85;6.88;;;22.60;99.90;;;;;;5094261;28;20044;-64
2022/06/16 08:42:52;;;;;;;10.27;6.05;;;22.90;99.90;;;;;;5087077;28;20074;-64
2022/06/16 08:45:26;;;;;;;;;;;23.40;99.90;;;;;;5075061;28;20451;-64
2022/06/16 08:48:14;;;;;;;10.07;6.10;;;23.50;99.90;;;;;;5078523;28;19938;-64
2022/06/16 08:50:57;;;;;;;9.85;6.25;;;23.50;99.90;;;;;;5086390;28;20059;-64
2022/06/16 08:54:06;;;;;;;10.40;6.25;;;23.60;99.90;;;;;;5095096;28;20048;-65
2022/06/16 08:56:58;;;;;;;12.30;7.00;;;23.70;99.90;;;;;;5094694;28;20082;-64
2022/06/16 08:59:39;;;;;;;10.05;6.45;;;23.90;99.90;;;;;;5086754;28;20040;-65
2022/06/16 09:02:10;;;;;;;9.60;6.70;;;24.40;99.90;;;;;;5074236;28;20045;-64
2022/06/16 09:04:41;;;;;;;11.05;6.15;;;24.60;99.90;;;;;;5074494;28;20546;-65
2022/06/16 09:07:33;;;;;;;9.48;6.18;;;25.10;99.90;;;;;;5083279;28;20508;-65
2022/06/16 09:10:24;;;;;;;11.38;6.68;;;25.70;99.90;;;;;;5073873;28;20052;-65
2022/06/16 09:13:00;;;;;;;11.35;6.78;;;25.60;99.90;;;;;;5075520;28;20044;-65
2022/06/16 09:15:32;;;;;;;8.55;6.40;;;25.90;99.90;;;;;;5086880;28;20499;-65
2022/06/16 09:18:01;;;;;;;9.07;5.97;;;25.90;99.90;;;;;;5074342;28;20080;-64
2022/06/16 09:20:32;;;;;;;9.30;5.68;;;25.80;99.90;;;;;;5075338;28;20040;-65
2022/06/16 09:23:30;;;;;;;13.80;6.03;;;25.70;99.90;;;;;;5082501;28;20044;-64
2022/06/16 09:26:18;;;;;;;11.38;6.22;;;25.50;99.90;;;;;;5074019;28;20413;-65
2022/06/16 09:28:56;;;;;;;12.55;5.43;;;25.60;99.90;;;;;;5073758;28;20523;-65
2022/06/16 09:31:46;;;;;;;10.45;5.78;;;25.50;99.90;;;;;;5081940;28;20102;-65
2022/06/16 09:34:22;;;;;;;13.02;5.18;;;25.40;99.90;;;;;;5073933;28;20227;-65
2022/06/16 09:36:58;;;;;;;15.07;6.20;;;25.00;99.90;;;;;;5073658;28;20044;-65
2022/06/16 09:39:31;;;;;;;15.88;5.28;;;24.60;99.90;;;;;;5081494;28;20056;-65
2022/06/16 09:42:33;;;;;;;10.70;4.60;;;24.30;99.90;;;;;;5070025;28;20040;-65
2022/06/16 09:45:05;;;;;;;10.68;4.70;;;23.10;99.90;;;;;;5090220;28;20041;-64
2022/06/16 09:47:45;;;;;;;9.13;3.80;;;22.10;99.90;;;;;;5090402;28;20075;-64
2022/06/16 09:50:31;;;;;;;6.93;3.05;;;21.10;99.90;;;;;;5082073;28;20122;-64
2022/06/16 09:53:11;;;;;;;8.73;2.95;;;20.20;99.90;;;;;;5076061;28;20047;-63
2022/06/16 09:55:46;;;;;;;4.20;2.35;;;19.70;99.90;;;;;;5093783;28;20044;-64
2022/06/16 09:58:37;;;;;;;11.90;2.30;;;19.40;99.90;;;;;;5087457;28;20094;-64
2022/06/16 10:01:08;;;;;;;6.28;2.78;;;19.20;99.90;;;;;;5090473;28;20097;-64
2022/06/16 10:03:57;;;;;;;7.53;2.65;;;19.10;99.90;;;;;;5093292;28;20067;-64
2022/06/16 10:06:24;;;;;;;9.23;3.97;;;19.10;99.90;;;;;;5081779;28;20044;-63
2022/06/16 10:09:07;;;;;;;7.05;2.28;;;19.20;99.90;;;;;;5092693;28;20506;-64
2022/06/16 10:11:45;;;;;;;7.25;2.88;;;19.20;99.90;;;;;;5083686;28;20032;-64
2022/06/16 10:14:27;;;;;;;8.18;3.22;;;19.60;99.90;;;;;;5085453;28;20392;-64
2022/06/16 10:17:07;;;;;;;9.15;4.10;;;20.00;99.90;;;;;;5093382;28;20047;-64
2022/06/16 10:19:41;;;;;;;8.15;3.17;;;20.60;99.90;;;;;;5092754;28;20129;-64
2022/06/16 10:22:10;;;;;;;3.58;2.30;;;21.00;99.90;;;;;;5082086;28;20044;-64
2022/06/16 10:24:49;;;;;;;5.47;2.10;;;21.20;99.90;;;;;;5082960;28;20049;-64
2022/06/16 10:27:18;;;;;;;5.60;2.80;;;21.10;99.90;;;;;;5091898;28;20039;-64
2022/06/16 10:29:57;;;;;;;4.95;2.10;;;21.00;99.90;;;;;;5086879;28;20085;-65
2022/06/16 10:32:43;;;;;;;4.40;2.17;;;21.20;99.90;;;;;;5088657;28;20059;-64
2022/06/16 10:35:18;;;;;;;5.05;2.83;;;21.80;99.90;;;;;;5091055;28;20047;-64
2022/06/16 10:37:47;;;;;;;6.38;2.22;;;22.20;99.90;;;;;;5092391;28;20044;-64
2022/06/16 10:40:21;;;;;;;6.07;2.42;;;22.70;99.90;;;;;;5080814;28;20452;-65
2022/06/16 10:42:51;;;;;;;7.80;4.03;;;23.10;99.90;;;;;;5090508;28;20048;-64
2022/06/16 10:45:30;;;;;;;7.05;3.13;;;23.30;99.90;;;;;;5092941;28;20039;-64
2022/06/16 10:48:01;;;;;;;4.93;2.90;;;23.00;99.90;;;;;;5084241;28;20526;-64
2022/06/16 10:50:36;;;;;;;4.22;2.40;;;23.00;99.90;;;;;;5092412;28;20040;-64
2022/06/16 10:53:28;;;;;;;5.28;2.75;;;22.50;99.90;;;;;;5085900;28;20085;-64
2022/06/16 10:56:14;;;;;;;7.93;3.78;;;22.30;99.90;;;;;;5090210;28;20040;-65
2022/06/16 10:58:50;;;;;;;3.83;2.17;;;22.40;99.90;;;;;;5084162;28;20036;-65
2022/06/16 11:01:23;;;;;;;5.90;2.60;;;22.30;99.90;;;;;;5092010;28;20051;-64
2022/06/16 11:04:01;;;;;;;6.95;2.78;;;22.60;99.90;;;;;;5092026;28;20044;-64
2022/06/16 11:06:29;;;;;;;3.50;2.65;;;22.90;99.90;;;;;;5084567;28;20044;-65
2022/06/16 11:09:00;;;;;;;3.97;2.53;;;23.20;99.90;;;;;;5084132;28;20051;-64
2022/06/16 11:11:53;;;;;;;5.00;2.63;;;23.40;99.90;;;;;;5091782;28;20043;-64
2022/06/16 11:14:46;;;;;;;6.00;4.00;;;23.80;99.90;;;;;;5092322;28;20040;-64
2022/06/16 11:17:22;;;;;;;5.07;2.72;;;24.20;99.90;;;;;;5062298;28;20132;-64
2022/06/16 11:19:51;;;;;;;5.90;2.95;;;24.20;99.90;;;;;;5079579;28;20109;-65
2022/06/16 11:22:40;;;;;;;4.40;2.55;;;24.40;99.90;;;;;;5089059;28;20553;-64
2022/06/16 11:25:19;;;;;;;5.60;3.05;;;24.30;99.90;;;;;;5083733;28;20511;-65
2022/06/16 11:27:56;;;;;;;5.07;2.40;;;24.30;99.90;;;;;;5087534;28;20040;-64
2022/06/16 11:30:29;;;;;;;4.97;2.78;;;24.00;99.90;;;;;;5091484;28;20044;-65
2022/06/16 11:32:56;;;;;;;3.88;2.30;;;24.00;99.90;;;;;;5092171;28;20134;-65
2022/06/16 11:35:46;;;;;;;3.40;2.22;;;23.90;99.90;;;;;;5080892;28;20055;-65
2022/06/16 11:38:19;;;;;;;6.13;2.33;;;23.80;99.90;;;;;;5071831;28;20045;-65
2022/06/16 11:40:57;;;;;;;3.55;2.10;;;24.00;99.90;;;;;;5071320;28;20044;-64
2022/06/16 11:43:42;;;;;;;5.53;2.45;;;23.80;99.90;;;;;;5072439;28;20516;-65
2022/06/16 11:46:22;;;;;;;5.13;2.53;;;23.80;99.90;;;;;;5088451;28;20043;-65
2022/06/16 11:49:12;;;;;;;4.20;2.70;;;23.90;99.90;;;;;;5102419;28;20119;-65
2022/06/16 11:52:05;;;;;;;5.30;2.50;;;24.10;99.90;;;;;;5111690;28;20051;-64
2022/06/16 11:54:59;;;;;;;4.22;3.40;;;24.10;99.90;;;;;;5078858;28;20044;-65
2022/06/16 11:58:00;;;;;;;6.03;3.13;;;24.50;99.90;;;;;;5071334;28;20060;-65
2022/06/16 12:01:01;;;;;;;4.63;2.83;;;24.00;99.90;;;;;;5071225;28;20493;-65
2022/06/16 12:03:52;;;;;;;5.97;2.85;;;23.10;99.90;;;;;;5081094;28;20040;-65
2022/06/16 12:06:57;;;;;;;8.30;3.05;;;22.80;99.90;;;;;;5071220;28;20570;-65
2022/06/16 12:09:55;;;;;;;10.07;3.60;;;22.50;99.90;;;;;;5071949;28;20044;-64
2022/06/16 12:12:40;;;;;;;9.25;4.05;;;22.30;99.90;;;;;;5077711;28;20086;-64
2022/06/16 12:15:29;;;;;;;8.75;3.83;;;22.10;99.90;;;;;;5091529;28;20048;-64
2022/06/16 12:18:22;;;;;;;7.57;4.00;;;21.90;99.90;;;;;;5091217;28;20040;-64
2022/06/16 12:21:07;;;;;;;5.22;3.72;;;21.80;99.90;;;;;;5082343;28;20044;-64
2022/06/16 12:23:44;;;;;;;6.43;3.60;;;21.60;99.90;;;;;;5091622;28;20070;-64
2022/06/16 12:26:38;;;;;;;8.30;4.03;;;21.30;99.90;;;;;;5091363;28;20052;-64
2022/06/16 12:29:26;;;;;;;9.23;4.05;;;20.90;99.90;;;;;;5082727;28;20520;-64
2022/06/16 12:32:01;;;;;;;9.43;4.38;;;20.70;99.90;;;;;;5082451;28;20048;-64
2022/06/16 12:34:38;;;;;;;8.90;3.72;;;20.50;99.90;;;;;;5091352;28;20048;-64
2022/06/16 12:37:11;;;;;;;7.28;4.80;;;20.40;99.90;;;;;;5086206;28;20036;-64
2022/06/16 12:40:09;;;;;;;11.60;6.10;;;20.30;99.90;;;;;;5088283;28;20051;-64
2022/06/16 12:42:47;;;;;;;6.53;3.57;;;20.20;99.90;;;;;;5091295;28;20055;-64
2022/06/16 12:45:24;;;;;;;8.25;3.72;;;20.20;99.90;;;;;;5079225;28;20055;-64
2022/06/16 12:48:01;;;;;;;9.52;4.00;;;20.10;99.90;;;;;;5090030;28;20531;-64
2022/06/16 12:50:35;;;;;;;4.80;3.33;;;20.10;99.90;;;;;;5072769;28;20052;-64
2022/06/16 12:53:11;;;;;;;18.50;7.13;;;20.10;99.90;;;;;;5086596;28;20115;-65
2022/06/16 12:55:44;;;;;;;9.68;4.15;;;20.10;99.90;;;;;;5088234;28;20052;-64
2022/06/16 12:58:24;;;;;;;17.00;7.30;;;20.20;99.90;;;;;;5090932;28;20074;-64
2022/06/16 13:00:55;;;;;;;9.45;4.13;;;20.30;99.90;;;;;;5090135;28;20661;-64
2022/06/16 13:03:31;;;;;;;7.80;4.03;;;20.50;99.90;;;;;;5087023;28;20097;-64
2022/06/16 13:05:58;;;;;;;8.48;3.50;;;20.60;99.90;;;;;;5090098;28;20515;-65
2022/06/16 13:08:29;;;;;;;4.30;3.05;;;20.60;99.90;;;;;;5083324;28;20055;-64
2022/06/16 13:11:00;;;;;;;11.40;4.18;;;20.60;99.90;;;;;;5083439;28;20048;-64
2022/06/16 13:13:40;;;;;;;7.78;4.57;;;20.60;99.90;;;;;;5084667;28;20109;-64
2022/06/16 13:16:08;;;;;;;11.90;3.60;;;20.60;99.90;;;;;;5088963;28;20044;-64
2022/06/16 13:18:50;;;;;;;7.85;3.45;;;20.50;99.90;;;;;;5090125;28;20072;-63
2022/06/16 13:21:26;;;;;;;7.85;3.38;;;20.30;99.90;;;;;;5082489;28;20043;-63
2022/06/16 13:24:39;;;;;;;6.32;2.65;;;20.00;99.90;;;;;;5092662;28;21348;-63
2022/06/16 13:27:36;;;;;;;4.40;2.47;;;19.80;99.90;;;;;;5101963;22;20127;-65
2022/06/16 13:34:48;;;;;;;11.70;4.18;;;19.80;99.90;;;;;;5030853;28;20035;-66
2022/06/16 13:37:41;;;;;;;12.85;4.47;;;19.30;99.90;;;;;;5089611;28;20036;-66
2022/06/16 13:40:07;;;;;;;10.35;4.47;;;19.00;99.90;;;;;;5088972;28;20047;-66
2022/06/16 13:42:55;;;;;;;12.27;5.85;;;18.80;99.90;;;;;;5085568;28;20044;-66
2022/06/16 13:45:38;;;;;;;12.57;5.53;;;18.70;99.90;;;;;;5083279;28;20036;-66
2022/06/16 13:48:08;;;;;;;13.38;6.00;;;18.60;99.90;;;;;;5086763;28;20040;-66
2022/06/16 13:50:49;;;;;;;17.30;7.95;;;18.50;99.90;;;;;;5093268;28;20048;-65
2022/06/16 13:53:25;;;;;;;12.00;7.32;;;18.50;99.90;;;;;;5093932;28;20399;-66
2022/06/16 13:56:03;;;;;;;12.52;5.10;;;18.70;99.90;;;;;;5090617;28;20040;-66
2022/06/16 13:58:50;;;;;;;5.55;4.07;;;19.20;99.90;;;;;;5092344;28;20040;-66
2022/06/16 14:01:25;;;;;;;11.55;5.40;;;19.80;99.90;;;;;;5093442;28;20052;-66